CheckWX is a tool to help pilots better visualize weather data.  It is not intended as a substitute for an official pre-flight weather briefing.

09:59:08 UTC

UUWW METAR
Vnukovo International Airport
Moscow, Russian Federation
Current

29 mins ago

UUWW 260930Z 27006MPS 9999 BKN020 M01/M06 Q1010 R24/510350 NOSIG
Observed
Jan-26 @ 09:30 UTC
Wind
  • 270° at 12 KTS
Visibility
10,000+ meters
Flight Rules
MVFR
Cloud Levels
  • Broken at 2,000' AGL
Temperature
-1°C / 30°F
Dewpoint
-6°C / 21°F
Humidity
69%
Altimeter
29.82" Hg
Pressure
1009.92 hPa
Previous

59 mins ago

UUWW 260900Z 27006MPS 9999 BKN019 M01/M06 Q1010 R24/510350 NOSIG
Observed
Jan-26 @ 09:00 UTC
Wind
  • 270° at 12 KTS
Visibility
10,000+ meters
Flight Rules
MVFR
Cloud Levels
  • Broken at 1,900' AGL
Temperature
-1°C / 30°F
Dewpoint
-6°C / 21°F
Humidity
69%
Altimeter
29.82" Hg
Pressure
1009.92 hPa
Previous

1 hour ago

UUWW 260830Z 27006MPS 9999 BKN021 M01/M06 Q1010 R24/510350 NOSIG
Observed
Jan-26 @ 08:30 UTC
Wind
  • 270° at 12 KTS
Visibility
10,000+ meters
Flight Rules
MVFR
Cloud Levels
  • Broken at 2,100' AGL
Temperature
-1°C / 30°F
Dewpoint
-6°C / 21°F
Humidity
69%
Altimeter
29.82" Hg
Pressure
1009.92 hPa